createdAt,value
2018-06-03T00:00:40.823Z,70.71
2018-06-03T00:05:34.117Z,70.33
2018-06-03T00:10:27.415Z,70.67
2018-06-03T00:15:21.470Z,70.71
2018-06-03T00:20:14.760Z,70.65
2018-06-03T00:25:08.062Z,70.95
2018-06-03T00:30:02.112Z,70.84
2018-06-03T00:34:55.413Z,70.53
2018-06-03T00:39:48.700Z,71.09
2018-06-03T00:44:42.771Z,71.52
2018-06-03T00:49:36.067Z,71.53
2018-06-03T00:54:29.363Z,72.01
2018-06-03T00:59:23.431Z,71.43
2018-06-03T01:04:16.749Z,71.63
2018-06-03T01:09:10.037Z,72.20
2018-06-03T01:14:03.335Z,72.04
2018-06-03T01:18:56.638Z,72.37
2018-06-03T01:24:23.699Z,72.50
2018-06-03T01:29:18.223Z,72.63
2018-06-03T01:34:12.787Z,73.88
2018-06-03T01:39:08.344Z,72.70
2018-06-03T01:44:02.931Z,73.25
2018-06-03T01:48:57.450Z,72.65
2018-06-03T01:53:51.988Z,72.83
2018-06-03T01:58:46.534Z,73.07
2018-06-03T02:03:41.112Z,73.16
2018-06-03T02:08:35.736Z,73.81
2018-06-03T02:13:30.271Z,73.62
2018-06-03T02:18:24.843Z,73.92
2018-06-03T02:23:19.366Z,74.41
2018-06-03T02:28:13.876Z,73.90
2018-06-03T02:33:08.395Z,73.31
2018-06-03T02:38:02.921Z,74.89
2018-06-03T02:42:57.475Z,75.18
2018-06-03T02:47:52.012Z,75.33
2018-06-03T02:52:46.563Z,75.22
2018-06-03T02:57:41.083Z,74.58
2018-06-03T03:02:35.590Z,74.23
2018-06-03T03:07:30.128Z,74.36
2018-06-03T03:12:24.676Z,74.39
2018-06-03T03:17:19.228Z,74.19
2018-06-03T03:22:13.788Z,74.94
2018-06-03T03:27:08.300Z,74.82
2018-06-03T03:32:02.831Z,75.19
2018-06-03T03:36:57.360Z,75.48
2018-06-03T03:41:51.986Z,74.66
2018-06-03T03:46:46.504Z,75.45
2018-06-03T03:51:41.043Z,74.40
2018-06-03T03:56:35.563Z,75.91
2018-06-03T04:01:30.092Z,75.24
2018-06-03T04:06:24.624Z,75.01
2018-06-03T04:11:19.199Z,76.20
2018-06-03T04:16:13.736Z,76.05
2018-06-03T04:21:08.292Z,74.91
2018-06-03T04:26:02.856Z,74.46
2018-06-03T04:30:57.378Z,74.20
2018-06-03T04:35:51.979Z,74.09
2018-06-03T04:40:46.533Z,73.12
2018-06-03T04:45:41.103Z,71.53
2018-06-03T04:50:35.653Z,69.58
2018-06-03T04:55:30.180Z,68.41
2018-06-03T05:00:24.710Z,66.92
2018-06-03T05:05:19.253Z,66.11
2018-06-03T05:10:13.805Z,63.80
2018-06-03T05:15:08.401Z,64.31
2018-06-03T05:20:03.007Z,62.73
2018-06-03T05:24:57.556Z,62.00
2018-06-03T05:29:52.071Z,62.02
2018-06-03T05:34:46.580Z,61.95
2018-06-03T05:39:41.115Z,61.81
2018-06-03T05:44:35.676Z,61.08
2018-06-03T05:49:30.711Z,60.85
2018-06-03T05:54:25.259Z,62.92
2018-06-03T05:59:19.824Z,62.29
2018-06-03T06:04:14.069Z,65.38
2018-06-03T06:09:08.642Z,63.85
2018-06-03T06:14:03.219Z,66.24
2018-06-03T06:18:57.762Z,66.92
2018-06-03T06:23:52.307Z,65.52
2018-06-03T06:28:46.840Z,65.54
2018-06-03T06:33:41.346Z,65.75
2018-06-03T06:38:35.921Z,64.49
2018-06-03T06:43:30.503Z,62.83
2018-06-03T06:48:25.038Z,62.34
2018-06-03T06:53:19.598Z,60.44
2018-06-03T06:58:14.216Z,59.66
2018-06-03T07:03:08.805Z,58.32
2018-06-03T07:08:03.339Z,56.88
2018-06-03T07:12:57.881Z,56.09
2018-06-03T07:17:52.423Z,55.66
2018-06-03T07:22:46.987Z,54.20
2018-06-03T07:27:41.511Z,54.75
2018-06-03T07:32:36.060Z,53.80
2018-06-03T07:37:30.626Z,52.22
2018-06-03T07:42:25.187Z,51.19
2018-06-03T07:47:19.738Z,53.08
2018-06-03T07:52:14.354Z,51.15
2018-06-03T07:57:08.854Z,48.28
2018-06-03T08:02:03.417Z,50.13
2018-06-03T08:06:57.947Z,47.39
2018-06-03T08:11:52.514Z,50.94
2018-06-03T08:16:47.075Z,48.75
2018-06-03T08:21:41.615Z,49.81
2018-06-03T08:26:36.179Z,47.38
2018-06-03T08:31:30.747Z,50.47
2018-06-03T08:36:25.309Z,49.53
2018-06-03T08:41:19.853Z,48.26
2018-06-03T08:46:14.455Z,47.95
2018-06-03T08:51:09.030Z,46.75
2018-06-03T08:56:03.591Z,48.39
2018-06-03T09:00:58.143Z,46.37
2018-06-03T09:05:52.976Z,46.83
2018-06-03T09:10:47.522Z,46.69
2018-06-03T09:15:42.146Z,48.53
2018-06-03T09:20:36.739Z,47.59
2018-06-03T09:25:32.207Z,47.01
2018-06-03T09:30:26.811Z,45.97
2018-06-03T09:35:21.347Z,46.04
2018-06-03T09:40:15.916Z,45.00
2018-06-03T09:45:10.499Z,47.04
2018-06-03T09:50:05.131Z,44.47
2018-06-03T09:54:59.683Z,45.66
2018-06-03T09:59:54.241Z,45.00
2018-06-03T10:04:48.784Z,47.75
2018-06-03T10:09:43.391Z,47.88
2018-06-03T10:14:38.121Z,43.77
2018-06-03T10:19:32.679Z,46.76
2018-06-03T10:24:27.260Z,42.59
2018-06-03T10:29:21.815Z,47.63
2018-06-03T10:34:16.399Z,43.19
2018-06-03T10:39:10.957Z,41.58
2018-06-03T10:44:05.607Z,41.38
2018-06-03T10:49:00.227Z,40.70
2018-06-03T10:53:54.859Z,41.17
2018-06-03T10:58:49.407Z,40.00
2018-06-03T11:03:44.629Z,41.72
2018-06-03T11:08:39.207Z,38.04
2018-06-03T11:13:33.801Z,40.93
2018-06-03T11:18:28.388Z,41.17
2018-06-03T11:23:23.006Z,38.03
2018-06-03T11:28:17.590Z,39.22
2018-06-03T11:33:12.171Z,37.83
2018-06-03T11:38:06.769Z,37.96
2018-06-03T11:43:01.017Z,38.13
2018-06-03T11:47:55.558Z,40.04
2018-06-03T11:52:50.137Z,37.50
2018-06-03T11:58:55.930Z,39.05
2018-06-03T12:03:50.539Z,38.34
2018-06-03T12:08:45.108Z,36.28
2018-06-03T12:13:39.784Z,36.66
2018-06-03T12:18:34.429Z,40.23
2018-06-03T12:23:29.273Z,37.81
2018-06-03T12:28:23.835Z,36.82
2018-06-03T12:33:18.404Z,36.43
2018-06-03T12:38:13.004Z,36.11
2018-06-03T12:43:07.692Z,37.39
2018-06-03T12:48:02.306Z,40.28
2018-06-03T12:52:56.935Z,41.41
2018-06-03T12:57:51.545Z,37.33
2018-06-03T13:02:46.100Z,37.86
2018-06-03T13:07:40.673Z,39.63
2018-06-03T13:12:35.568Z,39.40
2018-06-03T13:17:30.138Z,41.13
2018-06-03T13:22:24.725Z,39.43
2018-06-03T13:27:19.313Z,38.41
2018-06-03T13:32:13.875Z,41.60
2018-06-03T13:37:08.516Z,43.24
2018-06-03T13:42:03.123Z,42.41
2018-06-03T13:46:57.715Z,41.33
2018-06-03T13:51:52.592Z,41.31
2018-06-03T13:56:47.139Z,41.05
2018-06-03T14:01:41.715Z,40.13
2018-06-03T14:06:36.299Z,37.80
2018-06-03T14:11:31.640Z,38.61
2018-06-03T14:16:26.323Z,40.03
2018-06-03T14:21:20.882Z,40.34
2018-06-03T14:26:15.434Z,38.96
2018-06-03T14:31:10.002Z,40.35
2018-06-03T14:36:04.593Z,40.07
2018-06-03T14:40:59.133Z,38.61
2018-06-03T14:45:53.695Z,40.65
2018-06-03T14:50:48.300Z,39.48
2018-06-03T14:55:42.847Z,38.43
2018-06-03T15:00:37.395Z,38.33
2018-06-03T15:05:31.971Z,38.82
2018-06-03T15:10:26.568Z,39.03
2018-06-03T15:15:21.184Z,41.02
2018-06-03T15:20:15.958Z,40.87
2018-06-03T15:25:10.539Z,39.44
2018-06-03T15:30:05.223Z,38.91
2018-06-03T15:34:59.815Z,39.15
2018-06-03T15:39:54.395Z,38.14
2018-06-03T15:44:48.918Z,37.90
2018-06-03T15:49:43.447Z,38.42
2018-06-03T15:54:38.024Z,40.19
2018-06-03T15:59:32.599Z,39.77
2018-06-03T16:04:26.873Z,39.56
2018-06-03T16:09:21.455Z,40.71
2018-06-03T16:14:16.031Z,39.60
2018-06-03T16:19:10.733Z,38.90
2018-06-03T16:24:05.393Z,40.68
2018-06-03T16:28:59.975Z,38.86
2018-06-03T16:33:54.547Z,39.67
2018-06-03T16:38:49.079Z,39.44
2018-06-03T16:43:43.656Z,39.64
2018-06-03T16:48:38.234Z,40.45
2018-06-03T16:53:32.820Z,39.16
2018-06-03T16:58:27.408Z,39.96
2018-06-03T17:03:22.013Z,40.71
2018-06-03T17:08:16.634Z,40.07
2018-06-03T17:13:11.215Z,38.46
2018-06-03T17:18:05.858Z,38.67
2018-06-03T17:23:00.436Z,40.56
2018-06-03T17:27:55.046Z,40.83
2018-06-03T17:32:49.639Z,42.05
2018-06-03T17:37:44.205Z,40.91
2018-06-03T17:42:38.779Z,42.21
2018-06-03T17:47:33.350Z,41.71
2018-06-03T17:52:27.945Z,42.48
2018-06-03T17:57:22.552Z,42.61
2018-06-03T18:02:17.147Z,42.95
2018-06-03T18:07:11.712Z,44.31
2018-06-03T18:12:06.464Z,43.29
2018-06-03T18:17:01.090Z,44.61
2018-06-03T18:21:55.635Z,44.62
2018-06-03T18:26:50.203Z,44.11
2018-06-03T18:31:46.153Z,44.86
2018-06-03T18:36:40.440Z,44.80
2018-06-03T18:41:34.776Z,44.48
2018-06-03T18:46:29.453Z,46.08
2018-06-03T18:51:24.048Z,46.63
2018-06-03T18:56:18.683Z,46.63
2018-06-03T19:01:12.943Z,47.54
2018-06-03T19:06:07.575Z,47.05
2018-06-03T19:11:02.166Z,48.00
2018-06-03T19:15:56.868Z,47.85
2018-06-03T19:20:51.452Z,46.98
2018-06-03T19:25:45.992Z,49.64
2018-06-03T19:30:40.789Z,50.35
2018-06-03T19:35:35.401Z,51.20
2018-06-03T19:40:30.196Z,50.12
2018-06-03T19:45:24.815Z,51.09
2018-06-03T19:50:19.421Z,51.44
2018-06-03T19:55:14.037Z,52.30
2018-06-03T20:00:08.727Z,50.57
2018-06-03T20:05:03.390Z,52.99
2018-06-03T20:09:57.966Z,52.43
2018-06-03T20:14:52.563Z,50.90
2018-06-03T20:19:47.193Z,50.67
2018-06-03T20:24:41.503Z,50.74
2018-06-03T20:29:36.124Z,48.37
2018-06-03T20:34:30.906Z,50.37
